Time;durP1;ratioP1;P1;durP2;ratioP2;P2;SDS_P1;SDS_P2;PMS_P1;PMS_P2;Temp;Humidity;BMP_temperature;BMP_pressure;BME280_temperature;BME280_humidity;BME280_pressure;Samples;Min_cycle;Max_cycle;Signal;HPM_P1;HPM_P2
2021/12/12 00:02:24;;;;;;;11.50;6.10;;;22.20;54.60;;;;;;214370;1315;25246;-56
2021/12/12 00:07:30;;;;;;;9.90;5.30;;;22.10;54.60;;;;;;214250;1315;22724;-55
2021/12/12 00:12:40;;;;;;;10.30;6.40;;;22.10;54.50;;;;;;214334;1314;22783;-55
2021/12/12 00:17:54;;;;;;;10.70;5.80;;;22.00;54.80;;;;;;214270;1314;25444;-55
2021/12/12 00:23:01;;;;;;;9.90;5.70;;;21.90;54.80;;;;;;214289;1316;24416;-55
2021/12/12 00:28:11;;;;;;;11.40;6.30;;;21.90;54.80;;;;;;214303;1316;24277;-55
2021/12/12 00:33:19;;;;;;;11.40;6.70;;;22.10;54.10;;;;;;214452;1315;22569;-56
2021/12/12 00:38:29;;;;;;;12.80;6.60;;;22.70;52.70;;;;;;214432;1314;25447;-54
2021/12/12 00:43:46;;;;;;;10.90;6.10;;;23.10;52.10;;;;;;214249;1315;24244;-55
2021/12/12 00:48:50;;;;;;;11.20;6.50;;;23.30;51.30;;;;;;214373;1314;25537;-57
2021/12/12 00:53:59;;;;;;;12.20;6.30;;;23.30;51.10;;;;;;214520;1315;24286;-54
2021/12/12 00:59:21;;;;;;;13.10;6.70;;;23.60;50.50;;;;;;214488;1309;25367;-55
2021/12/12 01:04:34;;;;;;;11.10;5.90;;;23.80;50.40;;;;;;214337;1309;153949;-55
2021/12/12 01:09:50;;;;;;;11.50;6.10;;;23.70;50.40;;;;;;214322;1309;22650;-54
2021/12/12 01:15:00;;;;;;;11.20;6.00;;;23.80;50.30;;;;;;214368;1315;22737;-55
2021/12/12 01:20:26;;;;;;;8.20;5.60;;;23.90;50.10;;;;;;214391;1315;25326;-55
2021/12/12 01:25:43;;;;;;;10.00;6.20;;;23.80;49.80;;;;;;214491;1315;24333;-56
2021/12/12 01:30:48;;;;;;;9.50;5.90;;;23.90;49.60;;;;;;214463;1314;24378;-55
2021/12/12 01:35:52;;;;;;;11.20;6.70;;;23.90;49.50;;;;;;214437;1314;22595;-55
2021/12/12 01:40:58;;;;;;;11.50;6.40;;;23.90;49.30;;;;;;214595;1315;22637;-53
2021/12/12 01:46:08;;;;;;;9.70;6.00;;;24.00;48.90;;;;;;214456;1314;22644;-53
2021/12/12 01:51:13;;;;;;;9.90;6.30;;;24.00;48.80;;;;;;214345;1316;22564;-55
2021/12/12 01:56:22;;;;;;;10.20;7.10;;;24.00;48.60;;;;;;214446;1315;22760;-55
2021/12/12 02:01:37;;;;;;;10.70;6.50;;;24.00;48.80;;;;;;214433;1317;22596;-55
2021/12/12 02:06:47;;;;;;;10.20;6.60;;;24.00;48.30;;;;;;214453;1316;22575;-56
2021/12/12 02:11:57;;;;;;;9.30;6.30;;;24.00;48.30;;;;;;214570;1315;25450;-54
2021/12/12 02:17:11;;;;;;;8.80;6.20;;;24.00;48.50;;;;;;214305;1318;22767;-54
2021/12/12 02:38:25;;;;;;;10.00;6.80;;;24.30;47.20;;;;;;214299;1309;25308;-55
2021/12/12 02:43:33;;;;;;;10.60;7.00;;;24.40;47.20;;;;;;214418;1317;24256;-54
2021/12/12 02:48:40;;;;;;;10.80;6.60;;;24.30;47.60;;;;;;214463;1317;22594;-53
2021/12/12 02:53:54;;;;;;;9.00;6.50;;;24.00;47.50;;;;;;214342;1316;22558;-53
2021/12/12 02:59:01;;;;;;;9.80;6.80;;;23.90;48.20;;;;;;214099;1318;23103;-56
2021/12/12 03:04:06;;;;;;;10.00;6.80;;;23.60;48.30;;;;;;214337;1316;22640;-54
2021/12/12 03:09:21;;;;;;;8.20;6.20;;;23.50;48.60;;;;;;214382;1315;25602;-55
2021/12/12 03:14:32;;;;;;;8.60;6.50;;;23.30;48.90;;;;;;214466;1316;22757;-55
2021/12/12 03:19:36;;;;;;;9.50;6.40;;;23.10;49.20;;;;;;214517;1315;25294;-56
2021/12/12 03:24:40;;;;;;;8.80;6.00;;;23.00;49.50;;;;;;214389;1315;22577;-56
2021/12/12 03:29:45;;;;;;;10.30;6.60;;;22.90;49.70;;;;;;214458;1315;24332;-53
2021/12/12 03:34:57;;;;;;;10.50;7.10;;;22.70;49.80;;;;;;214539;1314;24282;-56
2021/12/12 03:40:09;;;;;;;11.10;7.70;;;22.60;50.00;;;;;;214418;1315;22809;-56
2021/12/12 03:45:14;;;;;;;9.20;6.40;;;22.60;50.10;;;;;;214328;1314;24015;-52
2021/12/12 03:50:24;;;;;;;8.90;6.80;;;22.50;50.20;;;;;;214620;1315;24333;-53
2021/12/12 03:55:29;;;;;;;9.90;7.10;;;22.50;50.10;;;;;;214587;1315;22577;-54
2021/12/12 04:00:47;;;;;;;10.40;7.00;;;22.50;50.20;;;;;;214332;1316;22588;-56
2021/12/12 04:05:54;;;;;;;10.40;6.80;;;22.40;50.20;;;;;;214424;1315;26589;-56
2021/12/12 04:10:58;;;;;;;9.20;6.40;;;22.40;50.50;;;;;;214539;1314;22645;-56
2021/12/12 04:16:03;;;;;;;9.20;6.60;;;22.70;50.00;;;;;;214476;1315;25285;-54
2021/12/12 04:21:06;;;;;;;8.30;6.10;;;23.10;48.70;;;;;;214397;1315;24333;-55
2021/12/12 04:26:28;;;;;;;8.80;6.70;;;23.40;48.10;;;;;;214369;1314;24276;-55
2021/12/12 04:31:34;;;;;;;9.20;6.70;;;23.50;47.70;;;;;;214480;1314;23913;-57
2021/12/12 04:36:42;;;;;;;8.90;6.30;;;23.60;47.70;;;;;;214390;1315;22695;-55
2021/12/12 04:41:49;;;;;;;7.90;6.50;;;23.70;47.60;;;;;;214470;1316;24332;-55
2021/12/12 04:52:48;;;;;;;9.00;6.40;;;23.70;47.00;;;;;;214385;1314;24289;-54
2021/12/12 04:58:10;;;;;;;8.70;6.50;;;23.70;46.90;;;;;;214329;1316;22655;-52
2021/12/12 05:03:21;;;;;;;9.20;6.70;;;23.70;46.90;;;;;;214464;1315;25431;-52
2021/12/12 05:08:33;;;;;;;;;;;23.80;46.70;;;;;;214502;1309;25984;-53
2021/12/12 05:13:37;;;;;;;10.90;6.90;;;23.80;46.60;;;;;;214296;1315;25517;-53
2021/12/12 05:18:49;;;;;;;10.00;6.50;;;23.80;46.60;;;;;;214585;1308;22570;-53
2021/12/12 05:23:58;;;;;;;8.00;6.20;;;23.80;46.50;;;;;;214760;1315;23085;-51
2021/12/12 05:29:12;;;;;;;8.10;6.90;;;23.80;46.40;;;;;;214437;1316;25371;-56
2021/12/12 05:34:18;;;;;;;10.30;6.70;;;23.80;46.00;;;;;;214339;1316;22867;-51
2021/12/12 05:39:22;;;;;;;9.10;6.60;;;23.80;46.30;;;;;;214496;1315;25454;-54
2021/12/12 05:44:29;;;;;;;9.00;6.50;;;23.80;46.50;;;;;;214406;1315;22593;-53
2021/12/12 05:49:37;;;;;;;8.50;6.50;;;23.90;46.10;;;;;;214411;1316;22613;-54
2021/12/12 05:54:42;;;;;;;8.40;6.30;;;24.00;46.00;;;;;;214413;1315;22669;-53
2021/12/12 05:59:46;;;;;;;8.20;6.50;;;24.00;45.90;;;;;;214484;1315;24270;-56
2021/12/12 06:04:57;;;;;;;8.00;6.30;;;24.10;45.80;;;;;;214431;1315;22875;-54
2021/12/12 06:10:06;;;;;;;8.50;6.70;;;24.20;45.60;;;;;;214424;1314;22589;-56
2021/12/12 06:15:16;;;;;;;7.70;6.30;;;24.20;45.40;;;;;;214397;1315;22583;-51
2021/12/12 06:20:20;;;;;;;8.80;6.60;;;24.10;45.40;;;;;;214486;1315;22843;-56
2021/12/12 06:25:25;;;;;;;9.70;6.80;;;24.10;45.40;;;;;;214585;1314;24325;-52
2021/12/12 06:30:29;;;;;;;8.90;6.90;;;24.20;45.30;;;;;;214471;1315;25477;-54
2021/12/12 06:35:33;;;;;;;9.00;6.90;;;24.20;45.30;;;;;;214406;1315;22580;-52
2021/12/12 06:40:38;;;;;;;9.40;6.80;;;24.10;45.20;;;;;;214491;1315;24313;-55
2021/12/12 06:45:41;;;;;;;8.80;6.70;;;24.10;45.20;;;;;;214627;1314;24082;-56
2021/12/12 06:50:49;;;;;;;9.10;6.90;;;24.20;45.60;;;;;;214543;1315;26569;-56
2021/12/12 06:55:57;;;;;;;8.20;6.70;;;24.10;45.10;;;;;;214421;1315;22562;-55
2021/12/12 07:01:10;;;;;;;7.80;6.70;;;24.20;45.10;;;;;;214417;1317;25561;-55
2021/12/12 07:06:21;;;;;;;9.80;6.90;;;24.20;45.10;;;;;;214548;1316;22575;-55
2021/12/12 07:11:27;;;;;;;8.30;6.80;;;24.20;45.20;;;;;;214352;1315;24325;-55
2021/12/12 07:16:31;;;;;;;9.20;6.50;;;24.20;45.20;;;;;;214388;1315;22560;-54
2021/12/12 07:21:36;;;;;;;10.30;6.20;;;24.20;45.80;;;;;;214395;1309;22592;-50
2021/12/12 07:26:41;;;;;;;8.80;6.60;;;24.20;45.60;;;;;;214537;1317;22611;-53
2021/12/12 07:31:47;;;;;;;12.00;7.20;;;24.20;45.70;;;;;;214505;1315;24310;-53
2021/12/12 07:36:55;;;;;;;9.30;6.50;;;24.10;46.00;;;;;;214430;1316;22576;-55
2021/12/12 07:42:02;;;;;;;9.00;6.80;;;24.00;46.10;;;;;;214276;1309;22634;-53
2021/12/12 07:47:09;;;;;;;8.20;6.50;;;23.80;46.60;;;;;;214247;1309;22567;-54
2021/12/12 07:52:21;;;;;;;12.10;7.60;;;23.70;46.50;;;;;;213792;1312;25512;-54
2021/12/12 07:57:28;;;;;;;10.10;6.80;;;23.50;46.80;;;;;;214226;1309;24319;-52
2021/12/12 08:02:33;;;;;;;9.40;6.70;;;23.30;47.00;;;;;;214172;1309;22613;-53
2021/12/12 08:07:41;;;;;;;12.00;7.10;;;23.30;47.40;;;;;;214249;1309;22613;-52
2021/12/12 08:12:51;;;;;;;8.80;6.30;;;23.10;47.60;;;;;;214110;1309;23084;-51
2021/12/12 08:17:57;;;;;;;10.20;7.20;;;23.00;47.60;;;;;;214114;1309;22677;-55
2021/12/12 08:23:01;;;;;;;9.50;6.80;;;22.90;48.00;;;;;;214135;1309;24280;-53
2021/12/12 08:28:05;;;;;;;9.30;6.10;;;22.90;48.00;;;;;;214203;1309;24312;-52
2021/12/12 08:33:09;;;;;;;9.20;6.70;;;22.80;48.10;;;;;;214183;1309;24248;-54
2021/12/12 08:38:19;;;;;;;11.10;6.80;;;22.70;48.20;;;;;;213904;1309;24360;-53
2021/12/12 08:43:27;;;;;;;10.10;6.70;;;22.70;48.40;;;;;;213937;1307;22734;-53
2021/12/12 08:48:34;;;;;;;11.70;6.80;;;22.60;48.70;;;;;;214027;1309;24928;-53
2021/12/12 08:53:46;;;;;;;9.40;6.90;;;22.60;48.50;;;;;;214024;1309;22893;-55
2021/12/12 08:58:51;;;;;;;7.90;6.00;;;22.80;48.40;;;;;;213968;1309;25155;-54
2021/12/12 09:03:59;;;;;;;9.70;6.60;;;23.10;47.70;;;;;;213841;1309;190208;-54
2021/12/12 09:09:29;;;;;;;11.50;6.60;;;23.60;46.60;;;;;;213855;1309;24225;-55
2021/12/12 09:14:59;;;;;;;11.80;6.60;;;23.70;46.50;;;;;;214091;1309;22558;-55
2021/12/12 09:20:06;;;;;;;9.00;6.40;;;23.80;46.10;;;;;;214062;1309;22635;-54
2021/12/12 09:25:50;;;;;;;9.40;6.40;;;23.80;46.30;;;;;;214507;1309;22641;-55
2021/12/12 09:30:58;;;;;;;;;;;23.80;46.50;;;;;;213353;1311;22560;-55
2021/12/12 09:36:29;;;;;;;11.70;6.70;;;23.80;46.70;;;;;;214059;1309;22572;-54
2021/12/12 09:42:16;;;;;;;12.40;6.70;;;23.80;47.00;;;;;;214293;1315;24435;-54
2021/12/12 09:47:45;;;;;;;11.20;6.60;;;23.80;47.10;;;;;;214289;1309;25527;-51
2021/12/12 09:53:16;;;;;;;13.40;7.40;;;23.80;47.50;;;;;;214508;1309;24233;-56
2021/12/12 09:58:31;;;;;;;14.00;7.90;;;23.90;47.30;;;;;;214312;1313;22559;-53
2021/12/12 10:03:47;;;;;;;15.70;7.40;;;23.90;47.40;;;;;;214440;1315;24416;-54
2021/12/12 10:09:15;;;;;;;10.50;6.90;;;23.80;48.20;;;;;;214454;1315;26331;-54
2021/12/12 10:14:29;;;;;;;9.40;7.20;;;23.60;48.80;;;;;;214537;1316;22563;-52
2021/12/12 10:19:36;;;;;;;11.40;7.80;;;23.60;49.30;;;;;;214579;1315;25322;-51
2021/12/12 10:25:15;;;;;;;13.70;8.70;;;23.50;49.40;;;;;;214381;1316;28034;-52
2021/12/12 10:30:49;;;;;;;12.20;7.30;;;23.30;49.70;;;;;;214389;1318;25298;-52
2021/12/12 10:35:58;;;;;;;12.90;7.80;;;23.40;49.50;;;;;;214353;1315;22620;-53
2021/12/12 10:41:09;;;;;;;14.50;8.40;;;23.30;49.80;;;;;;214366;1314;25409;-55
2021/12/12 10:46:23;;;;;;;15.20;8.30;;;23.30;50.40;;;;;;214491;1315;22699;-55
2021/12/12 10:51:34;;;;;;;16.30;8.70;;;23.20;50.30;;;;;;214440;1309;25412;-56
2021/12/12 10:57:03;;;;;;;17.20;8.60;;;23.20;50.80;;;;;;214362;1309;22629;-53
2021/12/12 11:02:14;;;;;;;16.90;8.50;;;23.20;50.10;;;;;;214505;1315;22666;-55
2021/12/12 11:07:26;;;;;;;18.50;10.40;;;23.20;50.60;;;;;;214576;1314;22578;-56
2021/12/12 11:12:43;;;;;;;14.10;9.70;;;23.10;51.20;;;;;;214381;1315;22587;-54
2021/12/12 11:18:00;;;;;;;20.80;10.40;;;23.00;52.10;;;;;;214495;1315;25278;-54
2021/12/12 11:23:06;;;;;;;27.10;10.80;;;23.10;52.00;;;;;;214445;1312;22998;-55
2021/12/12 11:28:19;;;;;;;24.80;10.20;;;23.10;52.00;;;;;;214445;1314;22596;-52
2021/12/12 11:33:27;;;;;;;19.80;10.70;;;23.10;52.10;;;;;;214378;1315;22639;-53
2021/12/12 11:38:37;;;;;;;17.10;10.20;;;23.10;51.80;;;;;;214417;1315;22869;-52
2021/12/12 11:43:51;;;;;;;20.60;10.10;;;23.10;51.80;;;;;;214402;1316;22567;-52
2021/12/12 11:49:25;;;;;;;17.80;10.40;;;23.20;52.20;;;;;;214424;1309;24313;-50
2021/12/12 11:54:45;;;;;;;15.20;9.50;;;23.20;51.90;;;;;;214360;1315;22623;-51
2021/12/12 11:59:59;;;;;;;20.10;10.70;;;23.00;52.20;;;;;;214504;1315;22590;-54
2021/12/12 12:05:28;;;;;;;15.20;10.20;;;22.90;52.30;;;;;;214315;1309;24310;-52
2021/12/12 12:11:04;;;;;;;16.60;9.70;;;22.80;52.50;;;;;;214192;1311;24247;-54
2021/12/12 12:16:24;;;;;;;21.00;10.90;;;22.60;52.60;;;;;;214263;1315;22692;-52
2021/12/12 12:22:08;;;;;;;21.80;10.60;;;22.70;52.70;;;;;;214405;1314;22591;-55
2021/12/12 12:27:30;;;;;;;19.80;9.60;;;22.70;53.00;;;;;;214091;1317;25435;-51
2021/12/12 12:33:06;;;;;;;13.20;9.20;;;22.50;53.20;;;;;;214259;1315;23223;-51
2021/12/12 12:38:39;;;;;;;15.40;9.40;;;22.50;53.00;;;;;;214356;1310;22628;-50
2021/12/12 12:44:52;;;;;;;18.50;9.20;;;22.50;52.40;;;;;;214447;1315;25322;-53
2021/12/12 12:50:16;;;;;;;;;;;22.50;52.60;;;;;;214351;1312;22535;-51
2021/12/12 12:55:49;;;;;;;15.10;9.70;;;22.50;52.30;;;;;;214432;1310;22629;-54
2021/12/12 13:01:40;;;;;;;15.00;8.10;;;22.60;51.60;;;;;;214393;1315;24254;-49
2021/12/12 13:07:09;;;;;;;14.40;8.10;;;22.50;52.00;;;;;;214589;1315;22579;-51
2021/12/12 13:12:36;;;;;;;15.50;7.70;;;22.40;52.40;;;;;;214318;1314;25521;-50
2021/12/12 13:18:09;;;;;;;12.40;7.90;;;22.30;53.20;;;;;;214063;1313;22593;-52
2021/12/12 13:23:56;;;;;;;18.00;8.40;;;22.30;52.90;;;;;;214029;1313;24244;-53
2021/12/12 13:29:15;;;;;;;10.50;7.00;;;22.20;53.00;;;;;;214012;1315;25335;-50
2021/12/12 13:34:33;;;;;;;11.10;6.80;;;22.10;53.00;;;;;;214161;1309;22706;-52
2021/12/12 13:40:01;;;;;;;12.90;7.40;;;22.10;53.20;;;;;;214411;1309;22671;-54
2021/12/12 13:45:28;;;;;;;11.10;6.00;;;22.00;53.10;;;;;;213809;1315;25457;-51
2021/12/12 13:50:54;;;;;;;12.90;6.80;;;22.00;53.10;;;;;;213776;1313;23020;-50
2021/12/12 13:56:30;;;;;;;12.10;6.90;;;21.90;53.20;;;;;;216156;1312;24319;-50
2021/12/12 14:01:45;;;;;;;11.40;7.50;;;21.90;53.30;;;;;;214207;1316;25855;-51
2021/12/12 14:06:51;;;;;;;14.30;8.30;;;21.90;52.60;;;;;;214437;1315;22587;-49
2021/12/12 14:11:59;;;;;;;11.20;7.40;;;21.90;52.50;;;;;;214266;1312;22593;-52
2021/12/12 14:17:10;;;;;;;11.70;6.40;;;21.90;52.60;;;;;;214040;1315;25242;-51
2021/12/12 14:22:17;;;;;;;10.80;6.90;;;21.80;52.30;;;;;;214181;1310;22564;-51
2021/12/12 14:27:22;;;;;;;9.20;6.40;;;21.80;52.30;;;;;;214256;1310;25347;-49
2021/12/12 14:32:38;;;;;;;13.30;7.40;;;22.10;52.10;;;;;;214187;1315;22581;-53
2021/12/12 14:37:46;;;;;;;11.90;7.30;;;22.60;50.60;;;;;;214208;1309;22581;-53
2021/12/12 14:42:55;;;;;;;13.20;7.30;;;22.90;49.90;;;;;;214287;1316;22647;-50
2021/12/12 14:48:06;;;;;;;11.20;7.20;;;23.10;49.30;;;;;;214260;1314;25399;-50
2021/12/12 14:53:35;;;;;;;12.70;8.00;;;23.30;49.10;;;;;;214262;1309;22590;-52
2021/12/12 14:58:47;;;;;;;11.80;8.60;;;23.50;48.40;;;;;;214330;1313;25332;-51
2021/12/12 15:03:56;;;;;;;16.50;8.60;;;23.30;48.50;;;;;;214313;1316;22756;-52
2021/12/12 15:09:50;;;;;;;19.30;9.60;;;23.30;48.60;;;;;;214417;1316;22586;-51
2021/12/12 15:15:24;;;;;;;14.70;9.60;;;23.40;48.80;;;;;;214268;1317;22720;-51
2021/12/12 15:21:05;;;;;;;18.90;10.80;;;23.50;49.40;;;;;;214359;1315;25711;-53
2021/12/12 15:26:50;;;;;;;;;;;;;;;;;;;;;
2021/12/12 15:32:07;;;;;;;22.00;11.70;;;23.60;49.30;;;;;;214411;1314;22615;-54
2021/12/12 15:37:18;;;;;;;20.70;11.60;;;23.70;48.90;;;;;;213905;1309;24292;-51
2021/12/12 15:42:38;;;;;;;14.80;10.50;;;23.60;49.50;;;;;;214460;1316;23266;-53
2021/12/12 15:48:03;;;;;;;17.60;11.00;;;23.50;49.50;;;;;;214321;1310;25468;-51
2021/12/12 15:53:22;;;;;;;22.90;11.80;;;23.20;50.10;;;;;;214344;1310;22607;-49
2021/12/12 15:58:38;;;;;;;19.80;11.30;;;23.00;50.90;;;;;;213927;1310;26610;-50
2021/12/12 16:03:53;;;;;;;22.70;12.00;;;22.90;50.60;;;;;;214028;1309;22616;-56
2021/12/12 16:09:04;;;;;;;22.60;12.20;;;22.80;50.90;;;;;;213928;1311;24280;-50
2021/12/12 16:14:12;;;;;;;22.70;12.40;;;22.80;51.10;;;;;;214515;1309;22723;-51
2021/12/12 16:19:40;;;;;;;24.20;12.90;;;22.70;51.60;;;;;;214063;1309;22764;-52
2021/12/12 16:24:49;;;;;;;22.00;14.00;;;22.70;52.20;;;;;;214660;1315;24768;-51
2021/12/12 16:29:57;;;;;;;20.80;14.00;;;22.70;51.80;;;;;;214801;1315;22668;-55
2021/12/12 16:35:14;;;;;;;24.70;14.10;;;22.60;52.00;;;;;;214678;1309;25952;-52
2021/12/12 16:40:27;;;;;;;30.10;14.20;;;22.60;52.40;;;;;;214908;1315;22578;-51
2021/12/12 16:45:49;;;;;;;24.90;16.20;;;22.60;52.20;;;;;;214882;1315;22580;-50
2021/12/12 16:51:11;;;;;;;21.80;14.30;;;22.50;52.20;;;;;;214324;1314;25434;-54
2021/12/12 16:56:24;;;;;;;24.10;15.60;;;22.30;52.80;;;;;;214419;1316;23112;-51
2021/12/12 17:01:37;;;;;;;25.80;15.60;;;22.20;52.70;;;;;;214335;1316;25627;-50
2021/12/12 17:06:54;;;;;;;25.10;14.80;;;22.20;52.60;;;;;;214286;1313;307686;-58
2021/12/12 17:12:23;;;;;;;31.10;16.10;;;22.20;52.60;;;;;;214337;1309;22572;-55
2021/12/12 17:18:12;;;;;;;28.80;16.10;;;22.10;52.50;;;;;;214384;1316;24479;-51
2021/12/12 17:23:46;;;;;;;26.00;15.30;;;22.10;52.60;;;;;;214485;1316;25450;-52
2021/12/12 17:28:57;;;;;;;27.50;16.70;;;22.00;53.00;;;;;;214087;1309;24329;-53
2021/12/12 17:34:25;;;;;;;30.10;18.70;;;21.80;53.20;;;;;;214229;1310;22567;-54
2021/12/12 17:39:44;;;;;;;27.70;17.50;;;21.90;53.40;;;;;;214114;1309;24307;-53
2021/12/12 17:45:29;;;;;;;34.00;18.90;;;22.30;52.30;;;;;;214395;1314;22684;-51
2021/12/12 17:51:11;;;;;;;29.60;18.10;;;22.80;51.40;;;;;;214467;1309;25281;-55
2021/12/12 17:56:27;;;;;;;30.10;17.80;;;22.90;51.00;;;;;;214347;1317;22608;-51
2021/12/12 18:01:53;;;;;;;27.20;18.20;;;23.20;50.30;;;;;;214492;1317;25488;-52
2021/12/12 18:07:34;;;;;;;29.50;17.90;;;23.40;49.60;;;;;;214372;1316;22643;-53
2021/12/12 18:12:45;;;;;;;29.30;18.20;;;23.40;49.70;;;;;;214510;1315;22674;-52
2021/12/12 18:18:49;;;;;;;30.00;19.70;;;23.50;49.00;;;;;;214264;1312;24410;-54
2021/12/12 18:24:06;;;;;;;30.40;19.60;;;23.70;48.70;;;;;;212796;1316;22703;-51
2021/12/12 18:29:34;;;;;;;28.90;19.60;;;23.70;48.80;;;;;;214123;1312;24282;-52
2021/12/12 18:35:04;;;;;;;29.50;19.30;;;23.80;48.60;;;;;;214319;1310;25335;-50
2021/12/12 18:40:44;;;;;;;29.60;19.90;;;23.80;48.50;;;;;;214382;1314;22626;-53
2021/12/12 18:45:58;;;;;;;29.00;18.70;;;23.70;48.50;;;;;;214191;1316;22597;-51
2021/12/12 18:51:18;;;;;;;28.30;18.10;;;23.70;48.90;;;;;;214297;1310;24248;-53
2021/12/12 18:56:40;;;;;;;26.60;18.00;;;23.80;48.90;;;;;;214509;1311;22596;-51
2021/12/12 19:02:26;;;;;;;26.00;17.60;;;23.70;49.30;;;;;;214488;1315;25541;-52
2021/12/12 19:07:33;;;;;;;24.30;16.30;;;23.80;49.20;;;;;;214337;1315;25628;-55
2021/12/12 19:12:51;;;;;;;21.90;16.30;;;23.80;49.60;;;;;;214315;1315;22808;-52
2021/12/12 19:18:35;;;;;;;;;;;;;;;;;;;;;
2021/12/12 19:24:17;;;;;;;25.50;14.50;;;23.60;49.20;;;;;;214404;1309;24254;-55
2021/12/12 19:29:40;;;;;;;25.10;14.00;;;23.40;49.70;;;;;;214324;1316;25384;-53
2021/12/12 19:35:23;;;;;;;23.50;14.50;;;23.10;50.60;;;;;;214285;1309;22597;-51
2021/12/12 19:40:44;;;;;;;22.60;14.90;;;22.80;50.70;;;;;;214232;1309;22627;-50
2021/12/12 19:46:02;;;;;;;22.20;13.70;;;22.80;50.70;;;;;;214286;1309;24245;-53
2021/12/12 19:51:15;;;;;;;22.50;14.30;;;22.50;51.40;;;;;;214332;1309;26700;-50
2021/12/12 19:56:21;;;;;;;33.30;14.10;;;22.60;51.60;;;;;;214312;1309;24265;-50
2021/12/12 20:01:33;;;;;;;26.10;13.00;;;22.50;53.10;;;;;;214335;1309;22558;-56
2021/12/12 20:06:50;;;;;;;26.00;14.00;;;22.50;54.80;;;;;;214315;1310;25277;-50
2021/12/12 20:12:11;;;;;;;;;;;22.50;54.60;;;;;;214316;1309;22561;-54
2021/12/12 20:17:34;;;;;;;19.50;12.10;;;22.30;55.40;;;;;;214455;1309;24428;-54
2021/12/12 20:22:46;;;;;;;21.50;11.60;;;22.30;55.00;;;;;;214303;1309;24248;-51
2021/12/12 20:27:54;;;;;;;19.60;12.10;;;22.10;54.90;;;;;;214285;1313;22593;-52
2021/12/12 20:33:14;;;;;;;22.40;13.50;;;22.10;54.80;;;;;;214356;1309;25434;-51
2021/12/12 20:38:35;;;;;;;24.10;14.00;;;22.00;54.60;;;;;;214236;1309;24442;-54
2021/12/12 20:43:47;;;;;;;19.00;12.40;;;22.00;54.80;;;;;;214166;1309;22634;-53
2021/12/12 20:48:57;;;;;;;21.90;12.90;;;22.10;55.00;;;;;;214480;1316;25113;-53
2021/12/12 20:54:11;;;;;;;21.60;12.80;;;22.00;54.80;;;;;;214394;1315;24450;-51
2021/12/12 20:59:49;;;;;;;19.60;12.00;;;21.90;54.60;;;;;;214464;1316;25519;-50
2021/12/12 21:05:02;;;;;;;28.00;13.20;;;21.80;54.60;;;;;;214666;1315;22600;-54
2021/12/12 21:10:17;;;;;;;22.30;12.80;;;21.80;56.80;;;;;;214124;1309;22574;-54
2021/12/12 21:15:44;;;;;;;23.70;12.90;;;21.90;56.90;;;;;;214078;1309;22697;-52
2021/12/12 21:20:50;;;;;;;27.60;12.50;;;21.90;57.20;;;;;;214207;1318;24339;-51
2021/12/12 21:26:00;;;;;;;24.00;12.60;;;22.30;58.00;;;;;;214144;1309;26532;-51
2021/12/12 21:31:15;;;;;;;24.50;12.00;;;22.50;58.10;;;;;;214428;1315;22602;-51
2021/12/12 21:36:58;;;;;;;23.70;12.60;;;22.80;57.40;;;;;;214473;1315;25271;-56
2021/12/12 21:42:20;;;;;;;20.90;11.70;;;22.90;56.80;;;;;;214307;1316;26536;-55
2021/12/12 21:47:53;;;;;;;19.90;13.20;;;23.20;56.50;;;;;;214298;1310;23635;-54
2021/12/12 21:53:12;;;;;;;20.20;13.90;;;23.30;56.40;;;;;;214014;1309;25486;-54
2021/12/12 21:58:32;;;;;;;25.70;14.30;;;23.40;55.80;;;;;;214148;1309;24251;-50
2021/12/12 22:03:49;;;;;;;23.80;13.00;;;23.70;55.60;;;;;;213724;1309;24401;-51
2021/12/12 22:09:15;;;;;;;22.70;12.90;;;23.30;56.20;;;;;;214020;1309;22639;-53
2021/12/12 22:14:40;;;;;;;22.00;13.00;;;23.00;57.00;;;;;;213997;1309;24397;-55
2021/12/12 22:19:51;;;;;;;19.20;11.70;;;22.90;57.30;;;;;;214126;1309;22597;-53
2021/12/12 22:25:26;;;;;;;18.70;11.60;;;22.70;57.70;;;;;;213934;1309;25245;-55
2021/12/12 22:30:38;;;;;;;18.50;12.10;;;22.60;57.90;;;;;;214199;1309;22620;-52
2021/12/12 22:35:47;;;;;;;18.40;10.90;;;22.50;57.90;;;;;;214101;1316;25438;-51
2021/12/12 22:41:01;;;;;;;16.00;10.60;;;22.40;57.90;;;;;;214230;1315;22589;-51
2021/12/12 22:46:09;;;;;;;17.40;11.00;;;22.40;57.80;;;;;;214107;1313;24309;-52
2021/12/12 22:51:41;;;;;;;18.60;10.90;;;22.30;57.80;;;;;;215133;1309;24009;-52
2021/12/12 22:56:52;;;;;;;21.20;11.60;;;22.30;57.60;;;;;;214091;1315;23107;-50
2021/12/12 23:02:16;;;;;;;18.50;11.00;;;22.20;57.80;;;;;;213990;1309;22564;-54
2021/12/12 23:07:34;;;;;;;15.10;9.90;;;22.10;57.50;;;;;;214116;1309;22727;-53
2021/12/12 23:12:52;;;;;;;20.90;12.00;;;22.10;57.30;;;;;;214113;1309;22666;-52
2021/12/12 23:18:02;;;;;;;19.00;10.90;;;22.10;57.20;;;;;;213814;1310;26623;-55
2021/12/12 23:23:12;;;;;;;18.90;10.70;;;22.10;57.80;;;;;;216378;1309;24885;-56
2021/12/12 23:33:47;;;;;;;22.80;13.60;;;22.00;56.90;;;;;;214015;1309;22584;-52
2021/12/12 23:38:57;;;;;;;23.50;14.10;;;22.10;56.60;;;;;;214498;1309;22575;-53
2021/12/12 23:44:44;;;;;;;24.20;13.70;;;22.00;56.20;;;;;;214702;1315;22650;-52
2021/12/12 23:49:52;;;;;;;21.40;13.90;;;22.00;56.20;;;;;;214248;1316;22707;-54
2021/12/12 23:55:05;;;;;;;22.70;14.20;;;22.00;56.00;;;;;;214461;1314;22594;-51
